createdAt,value
2022-11-25T00:01:20.804Z,4.00
2022-11-25T00:03:48.771Z,2.92
2022-11-25T00:06:21.532Z,3.05
2022-11-25T00:08:51.420Z,2.92
2022-11-25T00:11:19.512Z,2.78
2022-11-25T00:13:48.603Z,2.40
2022-11-25T00:16:18.893Z,3.00
2022-11-25T00:18:48.292Z,2.75
2022-11-25T00:21:20.332Z,2.90
2022-11-25T00:23:58.966Z,2.88
2022-11-25T00:26:27.986Z,2.65
2022-11-25T00:28:57.630Z,2.80
2022-11-25T00:31:27.686Z,2.63
2022-11-25T00:33:54.926Z,3.03
2022-11-25T00:36:28.492Z,2.70
2022-11-25T00:38:58.143Z,3.10
2022-11-25T00:41:44.969Z,3.22
2022-11-25T00:44:33.138Z,3.40
2022-11-25T00:47:01.070Z,3.47
2022-11-25T00:49:28.626Z,3.65
2022-11-25T00:51:55.709Z,3.60
2022-11-25T00:54:23.290Z,3.35
2022-11-25T00:56:51.875Z,3.50
2022-11-25T00:59:19.219Z,3.35
2022-11-25T01:01:46.606Z,3.63
2022-11-25T01:04:13.769Z,4.18
2022-11-25T01:06:41.261Z,3.30
2022-11-25T01:09:09.087Z,3.35
2022-11-25T01:11:39.089Z,3.10
2022-11-25T01:14:06.581Z,3.22
2022-11-25T01:16:33.520Z,3.03
2022-11-25T01:19:01.196Z,3.08
2022-11-25T01:21:31.277Z,2.88
2022-11-25T01:24:03.275Z,3.97
2022-11-25T01:26:31.104Z,3.33
2022-11-25T01:29:00.326Z,3.78
2022-11-25T01:31:30.007Z,3.22
2022-11-25T01:36:25.923Z,3.88
2022-11-25T01:38:56.596Z,3.15
2022-11-25T01:41:30.312Z,3.25
2022-11-25T01:44:17.236Z,3.33
2022-11-25T01:47:13.130Z,3.60
2022-11-25T01:49:58.082Z,3.35
2022-11-25T01:52:34.247Z,3.20
2022-11-25T01:55:08.932Z,3.42
2022-11-25T01:58:00.682Z,2.45
2022-11-25T02:00:30.517Z,3.55
2022-11-25T02:02:58.854Z,3.47
2022-11-25T02:05:34.091Z,4.10
2022-11-25T02:08:01.276Z,3.95
2022-11-25T02:10:32.484Z,3.88
2022-11-25T02:12:59.876Z,3.88
2022-11-25T02:15:28.975Z,4.15
2022-11-25T02:17:56.238Z,3.63
2022-11-25T02:20:24.771Z,3.42
2022-11-25T02:23:36.210Z,4.25
2022-11-25T02:26:04.220Z,4.00
2022-11-25T02:28:33.897Z,4.00
2022-11-25T02:31:03.822Z,3.63
2022-11-25T02:33:30.796Z,3.47
2022-11-25T02:36:01.907Z,4.25
2022-11-25T02:38:53.146Z,4.13
2022-11-25T02:41:25.508Z,4.03
2022-11-25T02:43:58.464Z,3.85
2022-11-25T02:46:27.734Z,4.07
2022-11-25T02:49:12.224Z,4.22
2022-11-25T02:51:44.538Z,3.63
2022-11-25T02:54:13.549Z,4.22
2022-11-25T02:56:40.809Z,3.90
2022-11-25T02:59:09.816Z,4.35
2022-11-25T03:01:38.813Z,3.78
2022-11-25T03:04:08.872Z,4.05
2022-11-25T03:06:36.020Z,4.00
2022-11-25T03:09:03.517Z,3.80
2022-11-25T03:11:49.732Z,3.88
2022-11-25T03:14:17.124Z,3.92
2022-11-25T03:16:45.397Z,4.57
2022-11-25T03:19:12.724Z,3.67
2022-11-25T03:21:44.253Z,4.30
2022-11-25T03:24:11.321Z,4.32
2022-11-25T03:26:38.240Z,4.03
2022-11-25T03:29:05.168Z,3.90
2022-11-25T03:31:34.407Z,3.92
2022-11-25T03:34:01.446Z,3.90
2022-11-25T03:36:28.422Z,5.50
2022-11-25T03:38:55.340Z,4.22
2022-11-25T03:41:25.128Z,3.55
2022-11-25T03:43:53.003Z,3.65
2022-11-25T03:46:20.419Z,3.13
2022-11-25T03:48:47.949Z,3.40
2022-11-25T03:51:15.526Z,3.85
2022-11-25T03:53:45.081Z,3.15
2022-11-25T03:56:12.843Z,3.47
2022-11-25T03:58:39.852Z,3.50
2022-11-25T04:01:09.616Z,3.53
2022-11-25T04:03:36.803Z,3.28
2022-11-25T04:06:04.350Z,3.20
2022-11-25T04:08:31.887Z,3.60
2022-11-25T04:11:00.146Z,4.85
2022-11-25T04:13:31.401Z,3.72
2022-11-25T04:15:58.480Z,4.68
2022-11-25T04:18:26.676Z,4.18
2022-11-25T04:20:56.280Z,3.92
2022-11-25T04:23:24.385Z,4.25
2022-11-25T04:25:59.961Z,3.83
2022-11-25T04:28:33.904Z,3.88
2022-11-25T04:31:06.438Z,4.70
2022-11-25T04:33:35.432Z,4.40
2022-11-25T04:36:02.760Z,3.78
2022-11-25T04:38:29.934Z,4.25
2022-11-25T04:40:58.564Z,4.32
2022-11-25T04:43:26.377Z,4.22
2022-11-25T04:46:17.189Z,4.60
2022-11-25T04:48:48.158Z,3.80
2022-11-25T04:51:17.422Z,3.53
2022-11-25T04:53:47.733Z,4.20
2022-11-25T04:56:20.663Z,3.72
2022-11-25T04:59:09.484Z,4.40
2022-11-25T05:01:41.943Z,4.60
2022-11-25T05:04:22.081Z,4.75
2022-11-25T05:06:51.714Z,4.45
2022-11-25T05:09:19.950Z,4.13
2022-11-25T05:11:54.052Z,4.85
2022-11-25T05:14:22.725Z,4.05
2022-11-25T05:16:49.886Z,4.80
2022-11-25T05:19:19.541Z,4.60
2022-11-25T05:21:46.644Z,4.72
2022-11-25T05:24:14.845Z,4.78
2022-11-25T05:26:42.673Z,4.75
2022-11-25T05:29:11.623Z,4.60
2022-11-25T05:31:40.864Z,4.82
2022-11-25T05:34:08.079Z,4.93
2022-11-25T05:36:37.719Z,4.43
2022-11-25T05:39:05.075Z,4.68
2022-11-25T05:41:52.126Z,4.55
2022-11-25T05:44:22.809Z,4.43
2022-11-25T05:46:54.162Z,4.80
2022-11-25T05:49:23.009Z,4.68
2022-11-25T05:51:51.141Z,5.72
2022-11-25T05:54:21.279Z,4.13
2022-11-25T05:56:51.935Z,4.00
2022-11-25T05:59:37.382Z,4.80
2022-11-25T06:02:20.212Z,3.90
2022-11-25T06:04:47.546Z,4.72
2022-11-25T06:07:15.737Z,5.07
2022-11-25T06:09:43.820Z,6.28
2022-11-25T06:12:11.572Z,4.53
2022-11-25T06:14:45.565Z,4.40
2022-11-25T06:17:13.550Z,5.13
2022-11-25T06:19:55.854Z,5.05
2022-11-25T06:22:24.150Z,4.93
2022-11-25T06:24:58.935Z,4.55
2022-11-25T06:27:50.026Z,4.38
2022-11-25T06:30:20.854Z,4.20
2022-11-25T06:33:01.350Z,4.55
2022-11-25T06:35:28.463Z,3.97
2022-11-25T06:37:59.275Z,3.92
2022-11-25T06:40:26.333Z,4.85
2022-11-25T06:42:53.230Z,5.00
2022-11-25T06:45:20.229Z,5.30
2022-11-25T06:47:47.126Z,4.93
2022-11-25T06:50:14.202Z,5.18
2022-11-25T06:52:41.179Z,4.78
2022-11-25T06:55:08.599Z,4.10
2022-11-25T06:57:36.548Z,4.32
2022-11-25T07:00:05.460Z,4.78
2022-11-25T07:02:39.806Z,4.55
2022-11-25T07:05:11.848Z,4.20
2022-11-25T07:07:39.474Z,4.25
2022-11-25T07:10:09.463Z,4.63
2022-11-25T07:12:38.977Z,4.60
2022-11-25T07:15:06.557Z,4.40
2022-11-25T07:17:34.018Z,4.68
2022-11-25T07:20:02.143Z,4.20
2022-11-25T07:22:30.322Z,4.45
2022-11-25T07:25:00.252Z,3.50
2022-11-25T07:27:27.185Z,5.05
2022-11-25T07:30:29.175Z,4.72
2022-11-25T07:32:41.740Z,4.40
2022-11-25T07:35:09.477Z,4.60
2022-11-25T07:37:39.807Z,5.07
2022-11-25T07:40:08.028Z,4.95
2022-11-25T07:42:35.398Z,5.28
2022-11-25T07:45:04.566Z,4.45
2022-11-25T07:47:51.690Z,4.38
2022-11-25T07:50:18.798Z,4.80
2022-11-25T07:52:47.066Z,4.30
2022-11-25T07:55:14.907Z,4.72
2022-11-25T07:57:46.007Z,4.57
2022-11-25T08:00:14.744Z,5.60
2022-11-25T08:02:41.899Z,4.22
2022-11-25T08:05:09.307Z,4.70
2022-11-25T08:07:36.980Z,5.13
2022-11-25T08:10:04.699Z,4.55
2022-11-25T08:12:34.963Z,4.50
2022-11-25T08:15:01.913Z,4.63
2022-11-25T08:17:31.513Z,4.57
2022-11-25T08:19:59.729Z,4.85
2022-11-25T08:22:28.190Z,4.90
2022-11-25T08:24:56.311Z,4.72
2022-11-25T08:27:23.388Z,4.07
2022-11-25T08:29:50.790Z,3.85
2022-11-25T08:32:17.705Z,4.95
2022-11-25T08:34:44.680Z,5.20
2022-11-25T08:37:12.563Z,4.93
2022-11-25T08:39:56.453Z,4.63
2022-11-25T08:42:23.652Z,4.88
2022-11-25T08:44:56.722Z,5.55
2022-11-25T08:47:24.777Z,4.47
2022-11-25T08:49:53.038Z,5.03
2022-11-25T08:52:23.965Z,5.35
2022-11-25T08:54:50.985Z,4.40
2022-11-25T08:57:19.655Z,5.43
2022-11-25T08:59:46.619Z,5.32
2022-11-25T09:02:18.071Z,4.80
2022-11-25T09:04:45.358Z,4.50
2022-11-25T09:07:13.787Z,5.32
2022-11-25T09:09:40.937Z,4.78
2022-11-25T09:12:08.533Z,5.30
2022-11-25T09:14:36.054Z,5.30
2022-11-25T09:17:03.881Z,4.40
2022-11-25T09:19:30.923Z,4.30
2022-11-25T09:21:57.864Z,4.65
2022-11-25T09:24:24.796Z,4.47
2022-11-25T09:26:52.164Z,5.28
2022-11-25T09:29:19.226Z,4.75
2022-11-25T09:31:50.073Z,4.53
2022-11-25T09:34:22.983Z,5.40
2022-11-25T09:36:50.093Z,5.45
2022-11-25T09:39:17.134Z,4.88
2022-11-25T09:42:39.869Z,5.07
2022-11-25T09:45:34.306Z,5.05
2022-11-25T09:48:09.657Z,4.95
2022-11-25T09:50:51.804Z,4.47
2022-11-25T09:53:43.063Z,4.20
2022-11-25T09:56:41.217Z,4.70
2022-11-25T09:59:19.129Z,4.50
2022-11-25T10:02:01.567Z,5.10
2022-11-25T10:04:38.139Z,5.15
2022-11-25T10:07:36.623Z,4.15
2022-11-25T10:10:07.167Z,4.75
2022-11-25T10:12:45.546Z,4.88
2022-11-25T10:15:19.405Z,4.97
2022-11-25T10:17:50.265Z,4.43
2022-11-25T10:20:24.915Z,4.35
2022-11-25T10:23:01.067Z,4.28
2022-11-25T10:25:31.513Z,4.55
2022-11-25T10:28:01.333Z,5.13
2022-11-25T10:31:00.376Z,3.83
2022-11-25T10:33:39.892Z,4.03
2022-11-25T10:36:34.348Z,3.88
2022-11-25T10:39:17.424Z,4.55
2022-11-25T10:41:59.558Z,5.18
2022-11-25T10:44:35.752Z,4.88
2022-11-25T10:47:15.937Z,4.70
2022-11-25T10:50:12.439Z,4.32
2022-11-25T10:53:08.368Z,4.80
2022-11-25T10:55:36.874Z,4.78
2022-11-25T10:58:42.575Z,5.00
2022-11-25T11:01:23.155Z,4.70
2022-11-25T11:04:15.179Z,4.40
2022-11-25T11:06:45.079Z,4.75
2022-11-25T11:09:34.713Z,5.90
2022-11-25T11:12:15.519Z,4.50
2022-11-25T11:14:43.566Z,4.20
2022-11-25T11:17:36.066Z,4.32
2022-11-25T11:20:06.872Z,4.30
2022-11-25T11:22:46.797Z,4.43
2022-11-25T11:25:20.925Z,4.22
2022-11-25T11:27:48.899Z,4.10
2022-11-25T11:30:23.944Z,4.55
2022-11-25T11:33:03.942Z,4.53
2022-11-25T11:35:41.917Z,4.68
2022-11-25T11:38:26.504Z,5.07
2022-11-25T11:41:05.198Z,4.32
2022-11-25T11:43:38.009Z,3.75
2022-11-25T11:46:26.708Z,3.83
2022-11-25T11:49:15.623Z,4.50
2022-11-25T11:52:04.984Z,4.55
2022-11-25T11:54:46.582Z,4.28
2022-11-25T11:59:49.521Z,3.72
2022-11-25T12:02:42.351Z,4.10
2022-11-25T12:05:14.667Z,3.95
2022-11-25T12:08:05.752Z,4.53
2022-11-25T12:10:44.906Z,3.85
2022-11-25T12:13:34.360Z,4.32
2022-11-25T12:16:11.071Z,4.32
2022-11-25T12:18:59.559Z,3.70
2022-11-25T12:22:19.730Z,4.28
2022-11-25T12:25:10.095Z,4.32
2022-11-25T12:27:41.582Z,4.57
2022-11-25T12:30:16.027Z,4.63
2022-11-25T12:32:58.959Z,4.10
2022-11-25T12:35:56.821Z,2.90
2022-11-25T12:38:33.297Z,4.00
2022-11-25T12:41:14.101Z,3.35
2022-11-25T12:43:51.071Z,3.88
2022-11-25T12:46:38.626Z,3.88
2022-11-25T12:49:18.606Z,4.03
2022-11-25T12:52:04.098Z,4.10
2022-11-25T12:54:49.121Z,4.60
2022-11-25T12:57:37.304Z,4.47
2022-11-25T13:03:22.976Z,3.78
2022-11-25T13:05:55.894Z,4.43
2022-11-25T13:09:07.601Z,5.38
2022-11-25T13:11:53.758Z,4.90
2022-11-25T13:14:54.532Z,4.40
2022-11-25T13:17:28.877Z,3.90
2022-11-25T13:20:23.878Z,4.07
2022-11-25T13:23:20.227Z,5.28
2022-11-25T13:25:51.113Z,4.10
2022-11-25T13:28:36.639Z,3.95
2022-11-25T13:31:28.274Z,4.15
2022-11-25T13:34:02.392Z,3.88
2022-11-25T13:36:52.267Z,4.00
2022-11-25T13:39:36.164Z,3.92
2022-11-25T13:42:42.029Z,3.63
2022-11-25T13:45:33.212Z,4.20
2022-11-25T13:48:16.730Z,4.13
2022-11-25T13:51:09.390Z,4.70
2022-11-25T13:53:35.944Z,3.97
2022-11-25T13:56:19.304Z,4.05
2022-11-25T13:59:12.796Z,4.13
2022-11-25T14:01:53.536Z,4.50
2022-11-25T14:04:54.903Z,3.85
2022-11-25T14:07:40.362Z,3.75
2022-11-25T14:10:39.305Z,3.63
2022-11-25T14:13:15.421Z,3.92
2022-11-25T14:15:48.575Z,3.42
2022-11-25T14:21:59.529Z,4.00
2022-11-25T14:24:50.598Z,4.25
2022-11-25T14:27:22.904Z,4.28
2022-11-25T14:29:59.745Z,4.05
2022-11-25T14:33:03.064Z,3.65
2022-11-25T14:35:48.227Z,4.00
2022-11-25T14:38:43.576Z,4.07
2022-11-25T14:41:19.518Z,3.55
2022-11-25T14:43:56.171Z,3.65
2022-11-25T14:46:34.586Z,3.85
2022-11-25T14:49:07.688Z,3.85
2022-11-25T14:51:44.765Z,4.07
2022-11-25T14:54:12.011Z,4.13
2022-11-25T14:56:41.151Z,4.05
2022-11-25T14:59:10.567Z,4.18
2022-11-25T15:01:39.374Z,4.55
2022-11-25T15:04:15.100Z,4.95
2022-11-25T15:09:27.009Z,4.28
2022-11-25T15:12:07.715Z,5.43
2022-11-25T15:14:44.415Z,4.88
2022-11-25T15:17:32.998Z,4.80
2022-11-25T15:20:04.563Z,4.15
2022-11-25T15:22:31.632Z,4.38
2022-11-25T15:25:09.794Z,5.53
2022-11-25T15:27:49.915Z,6.07
2022-11-25T15:30:29.963Z,5.55
2022-11-25T15:32:57.644Z,4.45
2022-11-25T15:35:27.683Z,5.22
2022-11-25T15:37:56.016Z,4.68
2022-11-25T15:40:44.183Z,5.00
2022-11-25T15:43:33.820Z,5.05
2022-11-25T15:46:08.853Z,8.73
2022-11-25T15:48:46.614Z,4.95
2022-11-25T15:51:18.437Z,4.63
2022-11-25T15:54:12.912Z,4.47
2022-11-25T15:57:11.936Z,5.07
2022-11-25T15:59:56.166Z,4.13
2022-11-25T16:02:34.748Z,4.82
2022-11-25T16:05:16.501Z,5.40
2022-11-25T16:10:23.766Z,4.35
2022-11-25T16:13:35.881Z,5.25
2022-11-25T16:16:26.236Z,5.60
2022-11-25T16:19:02.386Z,4.15
2022-11-25T16:21:46.754Z,4.50
2022-11-25T16:24:42.656Z,4.20
2022-11-25T16:27:26.277Z,4.25
2022-11-25T16:30:05.636Z,4.35
2022-11-25T16:32:35.932Z,4.35
2022-11-25T16:35:16.716Z,4.72
2022-11-25T16:37:48.891Z,4.53
2022-11-25T16:40:18.214Z,4.22
2022-11-25T16:42:51.440Z,3.75
2022-11-25T16:45:25.177Z,4.53
2022-11-25T16:47:57.957Z,5.05
2022-11-25T16:50:33.777Z,4.75
2022-11-25T16:53:01.571Z,4.75
2022-11-25T16:55:28.657Z,3.90
2022-11-25T16:57:56.875Z,5.03
2022-11-25T17:00:26.637Z,4.80
2022-11-25T17:02:55.529Z,4.05
2022-11-25T17:05:38.064Z,5.28
2022-11-25T17:10:35.025Z,4.43
2022-11-25T17:13:06.325Z,5.40
2022-11-25T17:15:36.035Z,4.40
2022-11-25T17:18:07.865Z,4.68
2022-11-25T17:20:35.315Z,4.95
2022-11-25T17:23:02.649Z,5.00
2022-11-25T17:25:37.151Z,4.68
2022-11-25T17:28:04.771Z,4.20
2022-11-25T17:30:32.620Z,4.40
2022-11-25T17:33:11.249Z,3.78
2022-11-25T17:35:38.498Z,3.60
2022-11-25T17:38:16.749Z,4.53
2022-11-25T17:40:46.269Z,4.10
2022-11-25T17:43:19.888Z,4.78
2022-11-25T17:45:47.195Z,4.82
2022-11-25T17:48:17.388Z,4.18
2022-11-25T17:50:47.686Z,4.00
2022-11-25T17:53:14.974Z,3.50
2022-11-25T17:55:43.623Z,3.55
2022-11-25T17:58:19.224Z,4.07
2022-11-25T18:00:46.410Z,3.33
2022-11-25T18:03:16.148Z,4.00
2022-11-25T18:08:13.092Z,3.95
2022-11-25T18:10:47.606Z,3.95
2022-11-25T18:13:19.235Z,3.85
2022-11-25T18:15:46.485Z,3.88
2022-11-25T18:18:22.801Z,3.97
2022-11-25T18:20:53.069Z,4.18
2022-11-25T18:23:32.861Z,3.85
2022-11-25T18:26:07.508Z,4.07
2022-11-25T18:28:36.967Z,4.90
2022-11-25T18:31:07.195Z,4.32
2022-11-25T18:33:36.941Z,3.95
2022-11-25T18:38:31.177Z,3.85
2022-11-25T18:40:59.655Z,3.67
2022-11-25T18:43:29.503Z,4.55
2022-11-25T18:45:57.392Z,8.10
2022-11-25T18:48:26.045Z,5.95
2022-11-25T18:50:56.196Z,3.85
2022-11-25T18:53:23.767Z,3.70
2022-11-25T18:55:51.295Z,3.42
2022-11-25T18:58:22.781Z,3.95
2022-11-25T19:00:51.548Z,6.50
2022-11-25T19:03:24.393Z,3.55
2022-11-25T19:05:54.282Z,4.45
2022-11-25T19:08:23.048Z,3.67
2022-11-25T19:10:50.915Z,3.83
2022-11-25T19:13:41.510Z,4.57
2022-11-25T19:16:17.128Z,4.35
2022-11-25T19:18:46.497Z,3.38
2022-11-25T19:21:30.817Z,3.13
2022-11-25T19:23:59.879Z,3.83
2022-11-25T19:26:36.822Z,3.85
2022-11-25T19:29:13.506Z,3.65
2022-11-25T19:31:41.079Z,4.28
2022-11-25T19:34:20.917Z,4.78
2022-11-25T19:36:47.785Z,3.80
2022-11-25T19:39:17.915Z,5.25
2022-11-25T19:41:55.649Z,4.50
2022-11-25T19:44:32.021Z,3.72
2022-11-25T19:47:14.957Z,4.35
2022-11-25T19:49:44.646Z,4.50
2022-11-25T19:52:35.207Z,4.20
2022-11-25T19:55:17.265Z,5.63
2022-11-25T19:57:45.709Z,4.63
2022-11-25T20:02:43.335Z,4.40
2022-11-25T20:05:19.239Z,4.38
2022-11-25T20:07:57.991Z,5.55
2022-11-25T20:10:34.206Z,5.53
2022-11-25T20:13:04.417Z,5.07
2022-11-25T20:15:37.349Z,4.75
2022-11-25T20:18:16.491Z,4.07
2022-11-25T20:20:49.115Z,5.40
2022-11-25T20:23:38.639Z,5.43
2022-11-25T20:26:18.821Z,5.10
2022-11-25T20:28:51.089Z,4.97
2022-11-25T20:31:30.530Z,4.97
2022-11-25T20:34:00.360Z,4.82
2022-11-25T20:36:35.330Z,4.65
2022-11-25T20:39:03.543Z,4.85
2022-11-25T20:41:31.065Z,5.03
2022-11-25T20:43:58.186Z,5.30
2022-11-25T20:46:29.712Z,5.25
2022-11-25T20:49:02.444Z,4.82
2022-11-25T20:51:29.828Z,4.95
2022-11-25T20:54:01.038Z,4.85
2022-11-25T20:56:28.673Z,5.32
2022-11-25T20:58:57.796Z,4.97
2022-11-25T21:01:25.260Z,5.55
2022-11-25T21:03:52.337Z,6.25
2022-11-25T21:06:29.334Z,6.13
2022-11-25T21:09:01.299Z,5.72
2022-11-25T21:11:33.918Z,5.43
2022-11-25T21:14:14.178Z,6.55
2022-11-25T21:16:41.541Z,5.70
2022-11-25T21:19:09.021Z,6.05
2022-11-25T21:21:39.514Z,5.95
2022-11-25T21:24:19.797Z,5.85
2022-11-25T21:26:46.776Z,5.30
2022-11-25T21:29:18.025Z,5.28
2022-11-25T21:31:45.531Z,5.25
2022-11-25T21:34:15.218Z,4.80
2022-11-25T21:36:44.877Z,6.00
2022-11-25T21:39:26.636Z,4.57
2022-11-25T21:41:58.877Z,5.47
2022-11-25T21:44:32.813Z,5.07
2022-11-25T21:46:59.804Z,6.18
2022-11-25T21:49:27.363Z,4.75
2022-11-25T21:51:54.651Z,5.95
2022-11-25T21:54:21.617Z,5.15
2022-11-25T21:56:49.296Z,5.35
2022-11-25T21:59:20.996Z,5.63
2022-11-25T22:01:48.190Z,4.97
2022-11-25T22:04:18.156Z,5.82
2022-11-25T22:06:46.579Z,5.05
2022-11-25T22:09:14.396Z,5.57
2022-11-25T22:11:45.487Z,5.63
2022-11-25T22:14:19.003Z,4.93
2022-11-25T22:16:47.577Z,4.95
2022-11-25T22:19:23.640Z,4.93
2022-11-25T22:24:19.206Z,3.88
2022-11-25T22:26:47.966Z,4.85
2022-11-25T22:29:18.453Z,4.28
2022-11-25T22:31:47.215Z,4.78
2022-11-25T22:34:19.803Z,3.95
2022-11-25T22:36:47.570Z,4.40
2022-11-25T22:39:15.407Z,4.95
2022-11-25T22:41:51.058Z,4.75
2022-11-25T22:44:23.877Z,4.70
2022-11-25T22:46:52.405Z,4.53
2022-11-25T22:49:39.075Z,4.60
2022-11-25T22:52:18.644Z,3.85
2022-11-25T22:54:45.647Z,5.13
2022-11-25T22:57:12.669Z,4.47
2022-11-25T22:59:39.640Z,4.85
2022-11-25T23:02:06.748Z,4.13
2022-11-25T23:04:36.203Z,4.88
2022-11-25T23:07:04.239Z,4.63
2022-11-25T23:09:32.246Z,4.20
2022-11-25T23:11:59.142Z,4.47
2022-11-25T23:14:26.074Z,4.32
2022-11-25T23:16:53.122Z,4.22
2022-11-25T23:19:21.102Z,4.00
2022-11-25T23:21:47.992Z,3.90
2022-11-25T23:24:17.142Z,4.80
2022-11-25T23:26:45.181Z,4.57
2022-11-25T23:29:12.149Z,4.65
2022-11-25T23:31:40.038Z,4.30
2022-11-25T23:34:07.579Z,4.38
2022-11-25T23:36:46.769Z,4.90
2022-11-25T23:39:23.596Z,4.93
2022-11-25T23:41:50.943Z,4.82
2022-11-25T23:44:17.761Z,4.97
2022-11-25T23:46:44.976Z,5.38
2022-11-25T23:49:26.381Z,4.45
2022-11-25T23:51:57.312Z,4.75
2022-11-25T23:54:31.880Z,5.53
2022-11-25T23:56:58.810Z,4.65
2022-11-25T23:59:30.775Z,4.60
